Página principal
METAR-TAF:

METAR-TAF

Aeroportos :

Lankaran, Azerbaijão

latitude: 38-44-47N, longitude: 048-49-04E, altura: 9 m

Observação actual do tempo

O boletim foi feito há 33 minutos, às 00:00 UTC
Vento calmo
Temperatura 12°C
Humidade 94%
Pressão 1023 hPa
Visibilidade: 9000 m

METAR: UBBL 180000Z 00000KT 9000 NSC 12/11 Q1023 R33/CLRD// NOSIG RMK MT OP

Hora: 04:33 (00:33 UTC)

Previsão

O boletim foi feito há 1 hora e 29 minutos, às 23:04 UTC
Previsão válida de 18 às 00 UTC a 18 às 24 UTC
Vento 4 kt com direcção variável
Visibilidade: 8000 m
Temporariamente
de 18 às 00 UTC a 18 às 04 UTC
Visibilidade: 3000 m
Nuvens dispersasa uma altura de 1000 ft
neblina
Tornando-se
de 18 às 06 UTC a 18 às 08 UTC
Vento 6 kt de este

TAF: UBBL 172304Z 1800/1824 VRB04KT 8000 NSC TX20/1810Z TN12/1802Z TEMPO 1800/1804 3000 BR SCT010 BECMG 1806/1808 08006KT

Observações e previsões do tempo de mais de 4000 aeroportos (mensagens METAR e TAF).

As estações disponíveis são os pontos amarelos e vermelhos sobre o mapa.

Mova o rato sobre o mapa para ver o nome da estação.

Depois clique no ponto para visualizar as observações e previsões meteorológicas.

Para alterar o mapa : clique nos botões verdes com uma cruz preta para aumentar o zoom; no botão verde com uma pitada de zoom; ou nas setas verdes para mapas adjacentes.


METAR-TAF: